Time;durP1;ratioP1;P1;durP2;ratioP2;P2;SDS_P1;SDS_P2;PMS_P1;PMS_P2;Temp;Humidity;BMP_temperature;BMP_pressure;BME280_temperature;BME280_humidity;BME280_pressure;Samples;Min_cycle;Max_cycle;Signal;HPM_P1;HPM_P2
2022/12/13 00:01:50;;;;;;;43.75;19.73;;;-3.00;99.90;;;;;;5111897;27;20043;-65
2022/12/13 00:04:17;;;;;;;38.70;19.27;;;-3.00;99.90;;;;;;5162683;27;20108;-65
2022/12/13 00:06:43;;;;;;;41.93;18.63;;;-3.00;99.90;;;;;;5118082;27;20044;-65
2022/12/13 00:09:11;;;;;;;38.38;19.52;;;-3.00;99.90;;;;;;5069416;28;20491;-65
2022/12/13 00:11:37;;;;;;;43.70;19.50;;;-3.00;99.90;;;;;;5059067;28;20086;-65
2022/12/13 00:14:02;;;;;;;48.45;22.17;;;-3.00;99.90;;;;;;5001037;28;20053;-65
2022/12/13 00:16:28;;;;;;;62.10;23.67;;;-3.00;99.90;;;;;;4981296;28;20130;-65
2022/12/13 00:18:56;;;;;;;51.72;22.38;;;-3.00;99.90;;;;;;4943693;28;20072;-65
2022/12/13 00:21:25;;;;;;;45.30;20.07;;;-3.00;99.90;;;;;;4886198;29;20485;-65
2022/12/13 00:23:59;;;;;;;44.33;19.93;;;-3.00;99.90;;;;;;5199420;27;20132;-64
2022/12/13 00:26:30;;;;;;;40.55;18.58;;;-3.00;99.90;;;;;;5138233;27;20128;-64
2022/12/13 00:28:59;;;;;;;40.33;19.73;;;-3.00;99.90;;;;;;5138362;27;20381;-64
2022/12/13 00:31:25;;;;;;;42.67;20.90;;;-3.10;99.90;;;;;;5171715;27;20052;-64
2022/12/13 00:33:51;;;;;;;45.05;20.02;;;-3.10;99.90;;;;;;5141852;27;20117;-65
2022/12/13 00:36:17;;;;;;;59.80;22.90;;;-3.10;99.90;;;;;;5110831;28;20052;-64
2022/12/13 00:38:43;;;;;;;67.07;21.27;;;-3.20;99.90;;;;;;5093745;28;20036;-64
2022/12/13 00:41:14;;;;;;;75.87;21.93;;;-3.20;99.90;;;;;;5081117;28;20045;-64
2022/12/13 00:43:41;;;;;;;80.70;21.83;;;-3.20;99.90;;;;;;4998120;28;20057;-64
2022/12/13 00:46:14;;;;;;;103.40;23.77;;;-3.20;99.90;;;;;;4951687;28;20031;-64
2022/12/13 00:48:50;;;;;;;109.77;22.97;;;-3.30;99.90;;;;;;5204936;27;20701;-65
2022/12/13 00:51:16;;;;;;;64.93;22.43;;;-3.20;99.90;;;;;;5160203;27;20118;-64
2022/12/13 00:53:41;;;;;;;58.47;21.53;;;-3.20;99.90;;;;;;5130262;27;20057;-64
2022/12/13 00:56:13;;;;;;;66.00;21.60;;;-3.30;99.90;;;;;;5074151;23;20038;-62
2022/12/13 00:58:40;;;;;;;86.13;22.05;;;-3.40;99.90;;;;;;5016145;28;20090;-62
2022/12/13 01:01:08;;;;;;;131.63;24.50;;;-3.40;99.90;;;;;;5025302;28;20041;-62
2022/12/13 01:03:34;;;;;;;76.23;23.77;;;-3.40;99.90;;;;;;5012826;28;20063;-62
2022/12/13 01:06:00;;;;;;;52.60;24.40;;;-3.40;99.90;;;;;;4978375;28;20061;-62
2022/12/13 01:08:36;;;;;;;71.27;24.73;;;-3.40;99.90;;;;;;4849389;29;20056;-62
2022/12/13 01:11:14;;;;;;;55.70;22.13;;;-3.50;99.90;;;;;;5198459;27;20128;-62
2022/12/13 01:13:40;;;;;;;56.37;23.90;;;-3.50;99.90;;;;;;5153158;27;20045;-62
2022/12/13 01:16:08;;;;;;;81.70;24.37;;;-3.50;99.90;;;;;;5170870;27;20200;-62
2022/12/13 01:18:34;;;;;;;68.30;23.93;;;-3.50;99.90;;;;;;5136046;27;20071;-62
2022/12/13 01:21:11;;;;;;;128.67;27.00;;;-3.40;99.90;;;;;;5146477;27;20040;-62
2022/12/13 01:23:37;;;;;;;56.13;24.10;;;-3.40;99.90;;;;;;5063852;28;20045;-62
2022/12/13 01:26:04;;;;;;;85.43;25.37;;;-3.50;99.90;;;;;;5088182;28;20378;-62
2022/12/13 01:28:30;;;;;;;86.23;23.40;;;-3.50;99.90;;;;;;5061888;28;20367;-62
2022/12/13 01:31:01;;;;;;;78.97;25.53;;;-3.50;99.90;;;;;;5033552;28;20097;-62
2022/12/13 01:33:28;;;;;;;59.83;23.33;;;-3.50;99.90;;;;;;4952769;28;20349;-62
2022/12/13 01:36:08;;;;;;;56.73;24.40;;;-3.50;99.90;;;;;;5190953;27;20149;-62
2022/12/13 01:38:35;;;;;;;42.67;22.20;;;-3.50;99.90;;;;;;5160948;27;20062;-62
2022/12/13 01:41:00;;;;;;;51.70;23.27;;;-3.50;99.90;;;;;;5146742;27;20490;-62
2022/12/13 01:43:51;;;;;;;50.10;21.53;;;-3.50;99.90;;;;;;5167453;27;20043;-62
2022/12/13 01:46:18;;;;;;;49.33;21.48;;;-3.50;99.90;;;;;;5074954;28;20072;-62
2022/12/13 01:49:20;;;;;;;50.97;23.33;;;-3.40;99.90;;;;;;5046400;28;20051;-62
2022/12/13 01:51:48;;;;;;;44.50;20.50;;;-3.40;99.90;;;;;;4984267;28;20093;-62
2022/12/13 01:54:17;;;;;;;44.97;21.40;;;-3.40;99.90;;;;;;4971410;28;20098;-62
2022/12/13 01:56:54;;;;;;;49.27;20.03;;;-3.40;99.90;;;;;;4895952;29;20528;-62
2022/12/13 01:59:21;;;;;;;46.33;22.10;;;-3.40;99.90;;;;;;4696344;30;20052;-61
2022/12/13 02:01:54;;;;;;;47.00;21.13;;;-3.40;99.90;;;;;;5179913;27;20502;-62
2022/12/13 02:04:29;;;;;;;47.23;20.87;;;-3.40;99.90;;;;;;5160787;27;20043;-62
2022/12/13 02:06:56;;;;;;;42.43;20.40;;;-3.40;99.90;;;;;;5133638;27;20391;-62
2022/12/13 02:09:22;;;;;;;44.43;20.27;;;-3.40;99.90;;;;;;5132400;27;20034;-61
2022/12/13 02:11:49;;;;;;;46.43;20.77;;;-3.50;99.90;;;;;;5132478;27;20047;-61
2022/12/13 02:14:15;;;;;;;43.63;21.00;;;-3.50;99.90;;;;;;5114098;27;20085;-62
2022/12/13 02:16:51;;;;;;;35.87;19.10;;;-3.50;99.90;;;;;;5041426;28;20056;-62
2022/12/13 02:19:45;;;;;;;44.50;21.60;;;-3.50;99.90;;;;;;5048947;28;20043;-62
2022/12/13 02:26:13;;;;;;;37.93;19.90;;;-3.50;99.90;;;;;;5185649;27;20587;-62
2022/12/13 02:28:48;;;;;;;40.30;19.07;;;-3.50;99.90;;;;;;5142748;27;20043;-62
2022/12/13 02:31:29;;;;;;;42.67;19.73;;;-3.50;99.90;;;;;;5141922;27;20489;-62
2022/12/13 02:34:15;;;;;;;47.47;20.73;;;-3.50;99.90;;;;;;5108350;27;20039;-62
2022/12/13 02:37:17;;;;;;;43.23;20.03;;;-3.50;99.90;;;;;;5042183;28;20053;-62
2022/12/13 02:39:57;;;;;;;46.63;22.10;;;-3.60;99.90;;;;;;5027584;28;20081;-62
2022/12/13 02:42:33;;;;;;;49.00;20.88;;;-3.60;99.90;;;;;;4973289;28;20113;-62
2022/12/13 02:45:13;;;;;;;51.63;23.83;;;-3.60;99.90;;;;;;4987384;28;20034;-62
2022/12/13 02:47:45;;;;;;;48.23;22.53;;;-3.60;99.90;;;;;;4843727;29;20065;-62
2022/12/13 02:50:24;;;;;;;51.93;23.37;;;-3.60;99.90;;;;;;5211610;27;20143;-62
2022/12/13 02:52:51;;;;;;;44.83;22.87;;;-3.60;99.90;;;;;;5184079;27;20061;-62
2022/12/13 02:55:16;;;;;;;52.97;23.57;;;-3.60;99.90;;;;;;5171507;27;20047;-62
2022/12/13 02:57:44;;;;;;;43.60;21.00;;;-3.70;99.90;;;;;;5118996;27;20048;-62
2022/12/13 03:00:16;;;;;;;46.10;22.23;;;-3.70;99.90;;;;;;5066367;28;20410;-62
2022/12/13 03:03:00;;;;;;;46.13;21.93;;;-3.70;99.90;;;;;;5046486;28;20056;-62
2022/12/13 03:09:07;;;;;;;45.73;19.97;;;-3.80;99.90;;;;;;4938133;29;20051;-62
2022/12/13 03:14:35;;;;;;;45.73;20.83;;;-3.80;99.90;;;;;;5192165;27;20132;-62
2022/12/13 03:17:03;;;;;;;53.07;24.00;;;-3.90;99.90;;;;;;5163937;27;20127;-62
2022/12/13 03:19:29;;;;;;;50.57;22.30;;;-3.80;99.90;;;;;;5143411;27;20088;-62
2022/12/13 03:21:55;;;;;;;50.50;22.83;;;-3.80;99.90;;;;;;5151523;27;20061;-62
2022/12/13 03:24:21;;;;;;;50.57;21.93;;;-3.80;99.90;;;;;;5185116;27;20049;-62
2022/12/13 03:26:48;;;;;;;52.80;22.63;;;-3.90;99.90;;;;;;5160410;27;20098;-62
2022/12/13 03:29:14;;;;;;;53.73;23.80;;;-3.80;99.90;;;;;;5128562;27;20062;-62
2022/12/13 03:31:39;;;;;;;53.07;24.53;;;-3.90;99.90;;;;;;5120287;27;20043;-62
2022/12/13 03:34:05;;;;;;;59.53;25.43;;;-3.90;99.90;;;;;;5083813;28;20213;-62
2022/12/13 03:36:31;;;;;;;56.13;26.37;;;-3.80;99.90;;;;;;5009222;28;20089;-62
2022/12/13 03:41:35;;;;;;;55.10;23.70;;;-3.90;99.90;;;;;;5200602;27;20136;-62
2022/12/13 03:44:06;;;;;;;61.03;24.40;;;-3.90;99.90;;;;;;5151324;27;20408;-62
2022/12/13 03:46:32;;;;;;;54.38;24.30;;;-3.90;99.90;;;;;;5172500;27;20038;-62
2022/12/13 03:48:57;;;;;;;60.57;26.10;;;-3.90;99.90;;;;;;5158630;27;20446;-62
2022/12/13 03:51:23;;;;;;;60.53;24.80;;;-3.90;99.90;;;;;;5091231;27;20052;-62
2022/12/13 03:53:48;;;;;;;55.40;23.00;;;-3.90;99.90;;;;;;5037006;28;20087;-62
2022/12/13 03:56:14;;;;;;;51.00;23.50;;;-3.90;99.90;;;;;;5034279;28;20050;-62
2022/12/13 03:58:41;;;;;;;53.07;21.70;;;-3.90;99.90;;;;;;4961300;28;20113;-62
2022/12/13 04:01:14;;;;;;;51.13;24.13;;;-3.90;99.90;;;;;;5004977;28;20120;-62
2022/12/13 04:03:44;;;;;;;50.47;23.00;;;-3.90;99.90;;;;;;5001855;28;20225;-62
2022/12/13 04:06:22;;;;;;;53.60;22.87;;;-4.00;99.90;;;;;;5186482;27;20138;-61
2022/12/13 04:08:47;;;;;;;49.67;23.50;;;-4.00;99.90;;;;;;5177144;27;20046;-62
2022/12/13 04:13:57;;;;;;;44.97;20.87;;;-4.00;99.90;;;;;;5112915;27;20043;-62
2022/12/13 04:16:23;;;;;;;54.23;23.50;;;-4.00;99.90;;;;;;5072085;28;20707;-62
2022/12/13 04:18:49;;;;;;;44.03;20.50;;;-3.90;99.90;;;;;;5083927;28;21781;-62
2022/12/13 04:21:14;;;;;;;40.17;20.67;;;-3.90;99.90;;;;;;5041329;28;20056;-61
2022/12/13 04:23:40;;;;;;;52.63;23.27;;;-3.90;99.90;;;;;;5025244;28;20480;-61
2022/12/13 04:26:06;;;;;;;44.03;21.30;;;-4.00;99.90;;;;;;4906235;29;20052;-61
2022/12/13 04:28:31;;;;;;;43.17;21.80;;;-3.90;99.90;;;;;;4902628;29;20047;-61
2022/12/13 04:31:08;;;;;;;42.00;20.27;;;-3.90;99.90;;;;;;5205151;27;20120;-62
2022/12/13 04:33:34;;;;;;;43.43;21.20;;;-4.00;99.90;;;;;;5161622;27;20042;-62
2022/12/13 04:36:00;;;;;;;48.00;21.43;;;-4.00;99.90;;;;;;5138718;27;20122;-61
2022/12/13 04:38:26;;;;;;;44.97;20.83;;;-4.00;99.90;;;;;;5137201;27;20062;-62
2022/12/13 04:40:51;;;;;;;51.40;22.97;;;-4.00;99.90;;;;;;5136711;27;20082;-62
2022/12/13 04:43:17;;;;;;;73.20;26.30;;;-4.00;99.90;;;;;;5128392;27;20156;-62
2022/12/13 04:45:43;;;;;;;64.17;25.93;;;-4.00;99.90;;;;;;5123077;28;20035;-62
2022/12/13 04:48:08;;;;;;;76.90;27.30;;;-4.00;99.90;;;;;;5122329;27;20039;-62
2022/12/13 04:50:34;;;;;;;84.03;28.40;;;-4.00;99.90;;;;;;5132317;27;20043;-62
2022/12/13 04:53:00;;;;;;;76.03;27.63;;;-4.00;99.90;;;;;;5093869;28;20032;-62
2022/12/13 04:55:38;;;;;;;79.30;28.80;;;-4.00;99.90;;;;;;5175402;27;20472;-62
2022/12/13 04:58:03;;;;;;;80.17;30.07;;;-4.00;99.90;;;;;;5147985;27;20043;-62
2022/12/13 05:00:29;;;;;;;84.80;29.90;;;-4.00;99.90;;;;;;5156538;27;20723;-62
2022/12/13 05:02:54;;;;;;;96.30;32.60;;;-4.00;99.90;;;;;;5138285;27;20131;-62
2022/12/13 05:05:21;;;;;;;130.40;33.53;;;-4.00;99.90;;;;;;5095458;28;20041;-62
2022/12/13 05:07:46;;;;;;;149.43;32.53;;;-4.00;99.90;;;;;;5047864;28;21650;-62
2022/12/13 05:10:12;;;;;;;121.57;31.83;;;-4.00;99.90;;;;;;5039256;28;20045;-62
2022/12/13 05:12:38;;;;;;;159.77;34.23;;;-4.00;99.90;;;;;;5063801;28;20620;-62
2022/12/13 05:15:05;;;;;;;125.27;34.63;;;-4.00;99.90;;;;;;5044077;28;20085;-62
2022/12/13 05:20:07;;;;;;;128.90;34.40;;;-4.10;99.90;;;;;;5188933;27;20160;-62
2022/12/13 05:22:33;;;;;;;111.10;34.43;;;-4.10;99.90;;;;;;5158974;27;20035;-62
2022/12/13 05:24:59;;;;;;;104.37;34.27;;;-4.00;99.90;;;;;;5137790;27;20466;-62
2022/12/13 05:27:24;;;;;;;122.03;36.67;;;-4.00;99.90;;;;;;5143037;27;20042;-62
2022/12/13 05:29:50;;;;;;;99.93;35.13;;;-4.00;99.90;;;;;;5138306;27;20385;-61
2022/12/13 05:32:15;;;;;;;114.00;36.93;;;-3.90;99.90;;;;;;5141527;27;20118;-62
2022/12/13 05:34:41;;;;;;;104.30;36.10;;;-3.90;99.90;;;;;;5125658;27;20047;-62
2022/12/13 05:37:06;;;;;;;109.63;35.87;;;-3.80;99.90;;;;;;5074769;28;20055;-62
2022/12/13 05:39:32;;;;;;;116.63;34.53;;;-3.80;99.90;;;;;;5063900;28;20080;-62
2022/12/13 05:41:58;;;;;;;136.00;37.03;;;-3.80;99.90;;;;;;5021897;28;20050;-62
2022/12/13 05:47:02;;;;;;;133.87;36.47;;;-3.80;99.90;;;;;;5159768;27;20129;-62
2022/12/13 05:49:28;;;;;;;102.43;36.77;;;-3.90;99.90;;;;;;5124461;27;20043;-62
2022/12/13 05:51:53;;;;;;;99.33;38.00;;;-3.90;99.90;;;;;;5130888;27;20044;-62
2022/12/13 05:54:19;;;;;;;88.17;33.77;;;-3.80;99.90;;;;;;5129026;27;20047;-62
2022/12/13 05:56:44;;;;;;;98.13;35.37;;;-3.80;99.90;;;;;;5111116;28;20201;-62
2022/12/13 05:59:10;;;;;;;86.00;32.67;;;-3.80;99.90;;;;;;5092599;28;20045;-62
2022/12/13 06:01:35;;;;;;;89.10;34.47;;;-3.70;99.90;;;;;;5036890;28;20045;-62
2022/12/13 06:04:01;;;;;;;84.67;31.27;;;-3.70;99.90;;;;;;4914629;28;20042;-62
2022/12/13 06:06:27;;;;;;;80.03;32.43;;;-3.70;99.90;;;;;;4897556;29;20107;-62
2022/12/13 06:08:52;;;;;;;76.33;32.20;;;-3.70;99.90;;;;;;4814763;29;20070;-62
2022/12/13 06:11:30;;;;;;;74.40;30.10;;;-3.70;99.90;;;;;;5190155;27;20132;-62
2022/12/13 06:13:55;;;;;;;70.77;29.87;;;-3.70;99.90;;;;;;5157586;27;20043;-62
2022/12/13 06:16:21;;;;;;;70.37;30.57;;;-3.70;99.90;;;;;;5161204;27;20034;-62
2022/12/13 06:18:47;;;;;;;73.37;32.40;;;-3.80;99.90;;;;;;5160168;27;20396;-62
2022/12/13 06:21:12;;;;;;;70.00;31.13;;;-3.80;99.90;;;;;;5138206;27;20039;-62
2022/12/13 06:23:38;;;;;;;78.67;30.87;;;-3.80;99.90;;;;;;5080974;28;20490;-62
2022/12/13 06:26:05;;;;;;;70.70;29.23;;;-3.80;99.90;;;;;;5093484;28;20109;-62
2022/12/13 06:28:31;;;;;;;73.73;29.67;;;-3.80;99.90;;;;;;5017026;28;20042;-62
2022/12/13 06:31:04;;;;;;;69.03;30.63;;;-3.90;99.90;;;;;;4987775;28;20083;-62
2022/12/13 06:33:34;;;;;;;71.17;28.97;;;-3.90;99.90;;;;;;4839676;29;20035;-62
2022/12/13 06:36:12;;;;;;;66.03;29.97;;;-3.90;99.90;;;;;;5176454;27;20125;-63
2022/12/13 06:38:38;;;;;;;66.73;29.13;;;-3.90;99.90;;;;;;5154022;27;20042;-62
2022/12/13 06:41:15;;;;;;;68.43;28.40;;;-3.90;99.90;;;;;;5149361;27;20050;-62
2022/12/13 06:43:46;;;;;;;64.50;28.07;;;-3.90;99.90;;;;;;5092155;28;20055;-62
2022/12/13 06:46:13;;;;;;;70.93;28.65;;;-3.90;99.90;;;;;;5050519;28;20041;-62
2022/12/13 06:48:39;;;;;;;70.73;30.47;;;-4.00;99.90;;;;;;5037393;28;20572;-62
2022/12/13 06:51:05;;;;;;;74.37;30.53;;;-3.90;99.90;;;;;;5060639;28;20041;-62
2022/12/13 06:53:31;;;;;;;63.73;28.40;;;-3.90;99.90;;;;;;5035150;28;20049;-62
2022/12/13 06:56:10;;;;;;;67.67;29.33;;;-4.00;99.90;;;;;;4991966;23;20049;-63
2022/12/13 07:01:34;;;;;;;69.53;29.53;;;-4.10;99.90;;;;;;5194112;27;20148;-63
2022/12/13 07:03:59;;;;;;;70.83;29.17;;;-4.10;99.90;;;;;;5161500;27;20047;-63
2022/12/13 07:06:26;;;;;;;64.73;30.17;;;-4.10;99.90;;;;;;5159478;27;20047;-64
2022/12/13 07:08:54;;;;;;;72.47;29.87;;;-4.10;99.90;;;;;;5116012;27;20051;-62
2022/12/13 07:11:23;;;;;;;71.60;30.80;;;-4.20;99.90;;;;;;5062447;28;20040;-63
2022/12/13 07:13:49;;;;;;;77.30;30.97;;;-4.20;99.90;;;;;;5046269;28;20130;-63
2022/12/13 07:16:15;;;;;;;72.63;31.50;;;-4.20;99.90;;;;;;5041873;28;20541;-63
2022/12/13 07:18:40;;;;;;;77.83;32.17;;;-4.20;99.90;;;;;;5017524;28;20050;-63
2022/12/13 07:21:07;;;;;;;67.47;30.03;;;-4.20;99.90;;;;;;5053389;28;20043;-63
2022/12/13 07:23:34;;;;;;;66.90;30.10;;;-4.20;99.90;;;;;;4914365;28;20449;-62
2022/12/13 07:26:11;;;;;;;71.03;30.93;;;-4.30;99.90;;;;;;5192658;27;20597;-64
2022/12/13 07:28:37;;;;;;;66.77;29.60;;;-4.20;99.90;;;;;;5149119;27;20042;-63
2022/12/13 07:31:05;;;;;;;71.90;29.43;;;-4.30;99.90;;;;;;5166712;27;20042;-63
2022/12/13 07:33:31;;;;;;;67.00;28.47;;;-4.30;99.90;;;;;;5121910;27;20079;-64
2022/12/13 07:36:01;;;;;;;71.77;30.10;;;-4.30;99.90;;;;;;5056744;28;20045;-63
2022/12/13 07:38:27;;;;;;;70.27;29.40;;;-4.40;99.90;;;;;;4880221;29;20117;-63
2022/12/13 07:40:56;;;;;;;65.43;29.37;;;-4.40;99.90;;;;;;4800716;29;20130;-63
2022/12/13 07:43:22;;;;;;;69.03;28.73;;;-4.30;99.90;;;;;;4738730;29;20151;-63
2022/12/13 07:45:48;;;;;;;69.23;29.30;;;-4.30;99.90;;;;;;4671453;30;20074;-63
2022/12/13 07:48:13;;;;;;;64.57;27.93;;;-4.40;99.90;;;;;;4568540;30;20192;-63
2022/12/13 07:50:46;;;;;;;70.97;29.50;;;-4.40;99.90;;;;;;5192913;27;20140;-63
2022/12/13 07:53:12;;;;;;;62.63;27.17;;;-4.40;99.90;;;;;;5172206;27;20043;-63
2022/12/13 07:55:37;;;;;;;66.97;26.83;;;-4.40;99.90;;;;;;5098345;27;20126;-63
2022/12/13 07:58:10;;;;;;;71.43;30.33;;;-4.50;99.90;;;;;;5097430;28;20032;-62
2022/12/13 08:00:37;;;;;;;63.13;26.57;;;-4.50;99.90;;;;;;5035775;28;20377;-62
2022/12/13 08:03:04;;;;;;;62.53;26.67;;;-4.50;99.90;;;;;;5010616;28;20054;-63
2022/12/13 08:05:30;;;;;;;67.80;29.30;;;-4.50;99.90;;;;;;5012464;28;20542;-62
2022/12/13 08:07:56;;;;;;;77.07;30.93;;;-4.50;99.90;;;;;;5042513;28;20063;-63
2022/12/13 08:10:22;;;;;;;66.70;27.80;;;-4.50;99.90;;;;;;5038003;28;20041;-63
2022/12/13 08:12:48;;;;;;;65.80;27.77;;;-4.50;99.90;;;;;;4969767;28;20050;-63
2022/12/13 08:15:22;;;;;;;65.33;28.93;;;-4.50;99.90;;;;;;5193429;27;20490;-63
2022/12/13 08:17:48;;;;;;;71.07;28.97;;;-4.50;99.90;;;;;;5143529;27;20058;-63
2022/12/13 08:20:14;;;;;;;62.07;25.77;;;-4.50;99.90;;;;;;5137244;27;20066;-63
2022/12/13 08:22:40;;;;;;;65.47;28.60;;;-4.50;99.90;;;;;;5141413;27;20035;-62
2022/12/13 08:25:06;;;;;;;68.13;28.43;;;-4.50;99.90;;;;;;5108756;27;20033;-62
2022/12/13 08:27:33;;;;;;;63.07;27.53;;;-4.50;99.90;;;;;;5086650;27;20174;-62
2022/12/13 08:29:58;;;;;;;64.30;27.03;;;-4.50;99.90;;;;;;5037225;28;20481;-63
2022/12/13 08:32:24;;;;;;;72.03;28.50;;;-4.50;99.90;;;;;;5028260;28;20037;-63
2022/12/13 08:34:50;;;;;;;62.40;27.23;;;-4.50;99.90;;;;;;5009605;28;20069;-63
2022/12/13 08:37:16;;;;;;;57.77;26.30;;;-4.50;99.90;;;;;;4956790;28;21163;-63
2022/12/13 08:39:48;;;;;;;59.77;26.73;;;-4.50;99.90;;;;;;5194124;27;20136;-63
2022/12/13 08:42:16;;;;;;;63.23;27.97;;;-4.40;99.90;;;;;;5189854;27;20479;-63
2022/12/13 08:44:42;;;;;;;61.40;26.33;;;-4.40;99.90;;;;;;5175896;27;20067;-63
2022/12/13 08:47:07;;;;;;;68.20;28.40;;;-4.40;99.90;;;;;;5126742;27;20040;-63
2022/12/13 08:49:33;;;;;;;64.93;27.33;;;-4.40;99.90;;;;;;5056284;28;20040;-63
2022/12/13 08:51:59;;;;;;;64.33;26.60;;;-4.30;99.90;;;;;;5055392;28;20111;-64
2022/12/13 08:54:25;;;;;;;59.70;27.40;;;-4.20;99.90;;;;;;4933408;28;20462;-64
2022/12/13 08:56:50;;;;;;;68.53;28.57;;;-4.20;99.90;;;;;;4806743;29;20043;-64
2022/12/13 08:59:17;;;;;;;62.23;28.27;;;-4.20;99.90;;;;;;4831232;29;20378;-64
2022/12/13 09:04:42;;;;;;;60.23;27.60;;;-4.00;99.90;;;;;;5172299;27;20306;-63
2022/12/13 09:07:08;;;;;;;59.33;27.97;;;-4.00;99.90;;;;;;5127099;27;20035;-62
2022/12/13 09:09:34;;;;;;;59.63;27.20;;;-3.90;99.90;;;;;;5137663;27;20046;-63
2022/12/13 09:11:59;;;;;;;68.07;26.20;;;-3.90;99.90;;;;;;5124908;27;20035;-62
2022/12/13 09:14:26;;;;;;;64.70;28.27;;;-3.80;99.90;;;;;;5062444;28;20137;-62
2022/12/13 09:16:51;;;;;;;65.20;27.20;;;-3.70;99.90;;;;;;5016478;28;20084;-62
2022/12/13 09:19:17;;;;;;;57.10;25.27;;;-3.80;99.90;;;;;;5021105;28;20073;-63
2022/12/13 09:21:42;;;;;;;62.77;28.13;;;-3.70;99.90;;;;;;4950846;28;20048;-62
2022/12/13 09:24:19;;;;;;;66.13;28.07;;;-3.70;99.90;;;;;;4876991;29;20050;-63
2022/12/13 09:26:57;;;;;;;60.10;27.47;;;-3.70;99.90;;;;;;5171071;27;20498;-63
2022/12/13 09:29:22;;;;;;;60.57;26.93;;;-3.60;99.90;;;;;;5147401;27;20035;-63
2022/12/13 09:31:48;;;;;;;64.17;28.63;;;-3.50;99.90;;;;;;5155015;27;20176;-63
2022/12/13 09:34:14;;;;;;;69.83;29.60;;;-3.40;99.90;;;;;;5116337;27;20044;-63
2022/12/13 09:36:40;;;;;;;58.47;26.93;;;-3.30;99.90;;;;;;5047046;28;20053;-63
2022/12/13 09:39:06;;;;;;;61.43;27.40;;;-3.30;99.90;;;;;;5014646;28;20081;-64
2022/12/13 09:41:41;;;;;;;63.40;27.77;;;-3.30;99.90;;;;;;5023213;28;20049;-64
2022/12/13 09:44:32;;;;;;;64.33;27.73;;;-3.20;99.90;;;;;;5033707;28;20045;-64
2022/12/13 09:47:15;;;;;;;62.10;26.47;;;-3.20;99.90;;;;;;5175728;27;20491;-64
2022/12/13 09:49:44;;;;;;;60.17;26.97;;;-3.20;99.90;;;;;;5100307;27;20473;-64
2022/12/13 09:52:17;;;;;;;68.23;27.40;;;-3.10;99.90;;;;;;5078986;27;20052;-64
2022/12/13 09:54:43;;;;;;;63.07;26.80;;;-3.10;99.90;;;;;;5060186;28;20050;-65
2022/12/13 09:57:33;;;;;;;62.50;28.10;;;-3.00;99.90;;;;;;4947119;28;20059;-63
2022/12/13 10:00:06;;;;;;;65.07;28.30;;;-3.00;99.90;;;;;;4845969;29;20057;-65
2022/12/13 10:02:42;;;;;;;65.40;27.83;;;-2.90;99.90;;;;;;4814136;29;20056;-64
2022/12/13 10:05:10;;;;;;;71.23;28.27;;;-2.90;99.90;;;;;;4710257;30;20148;-64
2022/12/13 10:07:47;;;;;;;66.50;28.13;;;-2.80;99.90;;;;;;4539809;31;20159;-64
2022/12/13 10:13:15;;;;;;;86.10;29.57;;;-2.70;99.90;;;;;;5199457;27;20136;-63
2022/12/13 10:15:46;;;;;;;67.83;29.70;;;-2.60;99.90;;;;;;5145319;27;20046;-62
2022/12/13 10:18:17;;;;;;;68.05;29.50;;;-2.60;99.90;;;;;;5108310;27;20051;-62
2022/12/13 10:20:43;;;;;;;74.40;30.53;;;-2.50;99.90;;;;;;5101819;27;20043;-63
2022/12/13 10:23:09;;;;;;;63.10;29.83;;;-2.40;99.90;;;;;;5081918;28;20032;-63
2022/12/13 10:26:01;;;;;;;72.00;30.80;;;-2.30;99.90;;;;;;5064059;28;20689;-63
2022/12/13 10:28:32;;;;;;;61.70;29.47;;;-2.20;99.90;;;;;;5000476;28;20148;-63
2022/12/13 10:30:59;;;;;;;74.97;31.88;;;-2.20;99.90;;;;;;4988568;28;20058;-62
2022/12/13 10:33:54;;;;;;;69.57;30.80;;;-2.10;99.90;;;;;;5188719;27;20128;-63
2022/12/13 10:36:46;;;;;;;75.20;31.43;;;-2.00;99.90;;;;;;5171952;27;20057;-62
2022/12/13 10:39:18;;;;;;;70.10;31.60;;;-2.00;99.90;;;;;;5149480;27;20492;-62
2022/12/13 10:41:46;;;;;;;72.27;29.23;;;-1.90;99.90;;;;;;5130236;27;20361;-62
2022/12/13 10:44:22;;;;;;;67.80;30.70;;;-1.90;99.90;;;;;;5114632;27;20184;-62
2022/12/13 10:46:59;;;;;;;71.57;30.83;;;-1.90;99.90;;;;;;5065567;28;20383;-62
2022/12/13 10:49:29;;;;;;;71.63;31.37;;;-1.80;99.90;;;;;;5073225;28;20544;-63
2022/12/13 10:51:57;;;;;;;76.13;32.22;;;-1.80;99.90;;;;;;5086372;28;20394;-62
2022/12/13 10:54:36;;;;;;;73.50;32.00;;;-1.80;99.90;;;;;;4981550;28;20558;-62
2022/12/13 11:00:00;;;;;;;75.77;32.00;;;-1.70;99.90;;;;;;5211291;27;20155;-63
2022/12/13 11:02:37;;;;;;;73.37;32.47;;;-1.60;99.90;;;;;;5187144;27;20038;-63
2022/12/13 11:05:23;;;;;;;71.67;30.43;;;-1.50;99.90;;;;;;5146898;27;20501;-63
2022/12/13 11:07:49;;;;;;;72.17;30.87;;;-1.50;99.90;;;;;;5082044;28;20044;-63
2022/12/13 11:10:22;;;;;;;75.63;32.27;;;-1.50;99.90;;;;;;5075257;28;20043;-63
2022/12/13 11:12:49;;;;;;;76.28;32.47;;;-1.40;99.90;;;;;;5016635;28;20503;-63
2022/12/13 11:15:21;;;;;;;76.70;33.00;;;-1.40;99.90;;;;;;5070808;28;20052;-63
2022/12/13 11:17:50;;;;;;;75.57;33.23;;;-1.40;99.90;;;;;;5017795;28;20038;-63
2022/12/13 11:20:36;;;;;;;73.10;32.38;;;-1.40;99.90;;;;;;5030392;28;20146;-63
2022/12/13 11:25:43;;;;;;;75.53;32.10;;;-1.30;99.90;;;;;;5183779;27;20135;-63
2022/12/13 11:28:30;;;;;;;73.23;33.43;;;-1.10;99.90;;;;;;5119173;27;20054;-63
2022/12/13 11:31:21;;;;;;;80.50;34.60;;;-1.10;99.90;;;;;;5107932;27;20039;-63
2022/12/13 11:34:02;;;;;;;77.28;34.72;;;-1.00;99.90;;;;;;5114532;28;20412;-62
2022/12/13 11:36:44;;;;;;;;;;;-1.00;99.90;;;;;;5068252;28;20479;-63
2022/12/13 11:39:15;;;;;;;72.97;34.15;;;-0.90;99.90;;;;;;4905569;28;20394;-64
2022/12/13 11:42:08;;;;;;;73.82;31.48;;;-0.90;99.90;;;;;;4860942;29;20053;-63
2022/12/13 11:45:03;;;;;;;77.77;32.63;;;-0.80;99.90;;;;;;4671630;30;20495;-64
2022/12/13 11:50:39;;;;;;;73.22;32.20;;;-0.60;99.90;;;;;;5180168;27;20638;-62
2022/12/13 11:53:30;;;;;;;65.50;31.25;;;-0.50;99.90;;;;;;5149759;27;20516;-62
2022/12/13 11:56:18;;;;;;;69.38;30.95;;;-0.50;99.90;;;;;;5118089;27;20374;-63
2022/12/13 11:59:02;;;;;;;72.30;32.25;;;-0.40;99.90;;;;;;5077884;27;20061;-63
2022/12/13 12:01:37;;;;;;;70.07;33.70;;;-0.40;99.90;;;;;;5105185;28;20049;-63
2022/12/13 12:04:17;;;;;;;71.63;34.25;;;-0.30;99.90;;;;;;5072113;28;20437;-63
2022/12/13 12:06:59;;;;;;;76.70;37.00;;;-0.20;99.90;;;;;;4960612;28;20150;-63
2022/12/13 12:09:27;;;;;;;78.35;38.63;;;-0.10;99.90;;;;;;4908394;29;20048;-63
2022/12/13 12:12:01;;;;;;;73.97;36.75;;;-0.10;99.90;;;;;;4779035;29;20588;-63
2022/12/13 12:14:45;;;;;;;76.55;37.28;;;-0.10;99.90;;;;;;5190439;27;20136;-62
2022/12/13 12:17:18;;;;;;;77.57;37.72;;;0.00;99.90;;;;;;5149907;27;20039;-62
2022/12/13 12:19:47;;;;;;;70.85;36.30;;;0.00;99.90;;;;;;5132247;27;20039;-63
2022/12/13 12:22:19;;;;;;;75.18;36.33;;;0.00;99.90;;;;;;5132994;27;20047;-64
2022/12/13 12:25:03;;;;;;;;;;;0.10;99.90;;;;;;5060297;28;20054;-63
2022/12/13 12:27:56;;;;;;;60.58;29.52;;;0.20;99.90;;;;;;4972555;28;19934;-64
2022/12/13 12:30:44;;;;;;;63.92;31.20;;;0.20;99.90;;;;;;4907902;29;20053;-62
2022/12/13 12:33:53;;;;;;;67.18;32.35;;;0.30;99.90;;;;;;4645142;29;20049;-62
2022/12/13 12:39:56;;;;;;;71.75;41.50;;;0.60;99.90;;;;;;5199954;27;20383;-62
2022/12/13 12:42:49;;;;;;;62.58;32.53;;;0.90;99.90;;;;;;5129169;27;21620;-61
2022/12/13 12:45:40;;;;;;;56.33;29.40;;;0.90;99.90;;;;;;5104007;28;20397;-62
2022/12/13 12:48:05;;;;;;;58.33;29.10;;;1.00;99.90;;;;;;5094800;28;20043;-62
2022/12/13 12:50:31;;;;;;;56.10;27.60;;;1.10;99.90;;;;;;5028110;28;20056;-62
2022/12/13 12:52:59;;;;;;;56.50;28.63;;;1.30;99.90;;;;;;5017594;28;20129;-62
2022/12/13 12:58:18;;;;;;;54.15;27.52;;;1.60;99.90;;;;;;4902112;29;20484;-69
2022/12/13 13:00:59;;;;;;;57.40;28.67;;;1.80;99.90;;;;;;4874036;29;20225;-70
2022/12/13 13:06:07;;;;;;;52.58;27.80;;;1.90;99.90;;;;;;5174757;27;20137;-64
2022/12/13 13:08:49;;;;;;;57.08;27.38;;;1.80;99.90;;;;;;5129988;27;20043;-64
2022/12/13 13:11:16;;;;;;;50.45;27.45;;;1.80;99.90;;;;;;5132053;27;20039;-64
2022/12/13 13:13:41;;;;;;;59.03;28.00;;;1.70;99.90;;;;;;5112743;28;20379;-64
2022/12/13 13:16:34;;;;;;;60.22;27.67;;;1.60;99.90;;;;;;5057862;28;20189;-64
2022/12/13 13:19:02;;;;;;;57.55;28.85;;;1.60;99.90;;;;;;5003510;28;20034;-64
2022/12/13 13:21:44;;;;;;;56.55;28.17;;;1.50;99.90;;;;;;4938276;28;20494;-64
2022/12/13 13:24:16;;;;;;;54.90;28.60;;;1.30;99.90;;;;;;4866067;29;20060;-64
2022/12/13 13:26:48;;;;;;;57.67;28.08;;;1.20;99.90;;;;;;4761052;29;20132;-64
2022/12/13 13:29:30;;;;;;;57.00;27.60;;;1.10;99.90;;;;;;5175285;27;20137;-64
2022/12/13 13:31:59;;;;;;;58.42;29.67;;;1.00;99.90;;;;;;5109398;27;20398;-64
2022/12/13 13:34:30;;;;;;;52.25;27.42;;;0.80;99.90;;;;;;5127682;27;20070;-64